sensor_id;sensor_type;location;lat;lon;timestamp;P1;durP1;ratioP1;P2;durP2;ratioP2
32138;SDS011;18644;48.700;9.210;2023-04-12T00:00:08;3.05;;;1.38;;
32138;SDS011;18644;48.700;9.210;2023-04-12T00:02:37;2.78;;;1.10;;
32138;SDS011;18644;48.700;9.210;2023-04-12T00:05:06;3.30;;;1.23;;
32138;SDS011;18644;48.700;9.210;2023-04-12T00:07:35;2.42;;;1.27;;
32138;SDS011;18644;48.700;9.210;2023-04-12T00:10:04;2.88;;;1.30;;
32138;SDS011;18644;48.700;9.210;2023-04-12T00:12:33;1.80;;;1.40;;
32138;SDS011;18644;48.700;9.210;2023-04-12T00:15:01;4.22;;;1.30;;
32138;SDS011;18644;48.700;9.210;2023-04-12T00:17:29;2.35;;;1.20;;
32138;SDS011;18644;48.700;9.210;2023-04-12T00:19:56;2.78;;;1.20;;
32138;SDS011;18644;48.700;9.210;2023-04-12T00:22:23;2.45;;;1.38;;
32138;SDS011;18644;48.700;9.210;2023-04-12T00:24:52;3.40;;;1.25;;
32138;SDS011;18644;48.700;9.210;2023-04-12T00:27:19;2.83;;;1.40;;
32138;SDS011;18644;48.700;9.210;2023-04-12T00:29:46;3.33;;;1.38;;
32138;SDS011;18644;48.700;9.210;2023-04-12T00:32:14;2.22;;;1.27;;
32138;SDS011;18644;48.700;9.210;2023-04-12T00:34:41;4.95;;;1.70;;
32138;SDS011;18644;48.700;9.210;2023-04-12T00:37:08;3.22;;;1.42;;
32138;SDS011;18644;48.700;9.210;2023-04-12T00:39:35;3.35;;;1.42;;
32138;SDS011;18644;48.700;9.210;2023-04-12T00:42:02;4.35;;;1.20;;
32138;SDS011;18644;48.700;9.210;2023-04-12T00:44:32;2.75;;;1.30;;
32138;SDS011;18644;48.700;9.210;2023-04-12T00:47:00;1.00;;;0.90;;
32138;SDS011;18644;48.700;9.210;2023-04-12T00:49:30;4.35;;;1.20;;
32138;SDS011;18644;48.700;9.210;2023-04-12T00:52:00;3.15;;;1.13;;
32138;SDS011;18644;48.700;9.210;2023-04-12T00:54:30;3.03;;;1.20;;
32138;SDS011;18644;48.700;9.210;2023-04-12T00:56:58;1.77;;;1.38;;
32138;SDS011;18644;48.700;9.210;2023-04-12T00:59:26;1.98;;;1.35;;
32138;SDS011;18644;48.700;9.210;2023-04-12T01:01:53;3.13;;;1.48;;
32138;SDS011;18644;48.700;9.210;2023-04-12T01:04:22;2.88;;;1.58;;
32138;SDS011;18644;48.700;9.210;2023-04-12T01:06:59;2.38;;;1.05;;
32138;SDS011;18644;48.700;9.210;2023-04-12T01:09:41;3.97;;;1.45;;
32138;SDS011;18644;48.700;9.210;2023-04-12T01:12:19;3.13;;;1.25;;
32138;SDS011;18644;48.700;9.210;2023-04-12T01:14:59;2.70;;;1.47;;
32138;SDS011;18644;48.700;9.210;2023-04-12T01:17:34;2.72;;;1.27;;
32138;SDS011;18644;48.700;9.210;2023-04-12T01:20:05;2.50;;;1.08;;
32138;SDS011;18644;48.700;9.210;2023-04-12T01:22:57;1.70;;;1.10;;
32138;SDS011;18644;48.700;9.210;2023-04-12T01:25:50;1.55;;;1.10;;
32138;SDS011;18644;48.700;9.210;2023-04-12T01:31:06;2.60;;;1.10;;
32138;SDS011;18644;48.700;9.210;2023-04-12T01:33:37;1.55;;;0.85;;
32138;SDS011;18644;48.700;9.210;2023-04-12T01:36:08;4.00;;;1.40;;
32138;SDS011;18644;48.700;9.210;2023-04-12T01:38:39;4.57;;;1.63;;
32138;SDS011;18644;48.700;9.210;2023-04-12T01:41:07;3.13;;;1.40;;
32138;SDS011;18644;48.700;9.210;2023-04-12T01:43:40;2.55;;;0.90;;
32138;SDS011;18644;48.700;9.210;2023-04-12T01:46:07;1.42;;;1.00;;
32138;SDS011;18644;48.700;9.210;2023-04-12T01:48:36;2.35;;;1.10;;
32138;SDS011;18644;48.700;9.210;2023-04-12T01:51:04;1.75;;;1.05;;
32138;SDS011;18644;48.700;9.210;2023-04-12T01:53:37;1.17;;;0.88;;
32138;SDS011;18644;48.700;9.210;2023-04-12T01:56:12;2.28;;;1.38;;
32138;SDS011;18644;48.700;9.210;2023-04-12T01:58:45;3.30;;;1.33;;
32138;SDS011;18644;48.700;9.210;2023-04-12T02:01:14;1.23;;;1.00;;
32138;SDS011;18644;48.700;9.210;2023-04-12T02:03:43;5.25;;;1.35;;
32138;SDS011;18644;48.700;9.210;2023-04-12T02:06:13;2.58;;;1.23;;
32138;SDS011;18644;48.700;9.210;2023-04-12T02:08:41;1.63;;;1.20;;
32138;SDS011;18644;48.700;9.210;2023-04-12T02:11:09;1.55;;;1.23;;
32138;SDS011;18644;48.700;9.210;2023-04-12T02:13:36;1.10;;;1.00;;
32138;SDS011;18644;48.700;9.210;2023-04-12T02:16:05;2.03;;;1.20;;
32138;SDS011;18644;48.700;9.210;2023-04-12T02:18:34;1.45;;;1.20;;
32138;SDS011;18644;48.700;9.210;2023-04-12T02:21:01;2.15;;;1.23;;
32138;SDS011;18644;48.700;9.210;2023-04-12T02:23:28;3.40;;;1.30;;
32138;SDS011;18644;48.700;9.210;2023-04-12T02:25:55;2.30;;;1.58;;
32138;SDS011;18644;48.700;9.210;2023-04-12T02:28:22;2.10;;;1.25;;
32138;SDS011;18644;48.700;9.210;2023-04-12T02:30:49;4.40;;;1.52;;
32138;SDS011;18644;48.700;9.210;2023-04-12T02:33:19;2.97;;;1.30;;
32138;SDS011;18644;48.700;9.210;2023-04-12T02:35:49;5.32;;;1.35;;
32138;SDS011;18644;48.700;9.210;2023-04-12T02:38:16;4.07;;;1.00;;
32138;SDS011;18644;48.700;9.210;2023-04-12T02:40:43;2.00;;;1.00;;
32138;SDS011;18644;48.700;9.210;2023-04-12T02:43:10;3.97;;;1.27;;
32138;SDS011;18644;48.700;9.210;2023-04-12T02:45:36;2.00;;;1.20;;
32138;SDS011;18644;48.700;9.210;2023-04-12T02:48:03;4.43;;;1.25;;
32138;SDS011;18644;48.700;9.210;2023-04-12T02:50:32;2.22;;;1.45;;
32138;SDS011;18644;48.700;9.210;2023-04-12T02:52:59;1.70;;;1.20;;
32138;SDS011;18644;48.700;9.210;2023-04-12T02:55:26;3.33;;;1.23;;
32138;SDS011;18644;48.700;9.210;2023-04-12T02:57:54;1.73;;;1.00;;
32138;SDS011;18644;48.700;9.210;2023-04-12T03:00:21;4.93;;;1.48;;
32138;SDS011;18644;48.700;9.210;2023-04-12T03:02:48;4.78;;;1.00;;
32138;SDS011;18644;48.700;9.210;2023-04-12T03:05:16;3.85;;;1.17;;
32138;SDS011;18644;48.700;9.210;2023-04-12T03:07:45;3.45;;;1.20;;
32138;SDS011;18644;48.700;9.210;2023-04-12T03:10:13;4.32;;;1.80;;
32138;SDS011;18644;48.700;9.210;2023-04-12T03:12:40;1.70;;;1.15;;
32138;SDS011;18644;48.700;9.210;2023-04-12T03:15:07;3.78;;;1.30;;
32138;SDS011;18644;48.700;9.210;2023-04-12T03:17:35;3.33;;;1.20;;
32138;SDS011;18644;48.700;9.210;2023-04-12T03:20:02;2.28;;;1.20;;
32138;SDS011;18644;48.700;9.210;2023-04-12T03:25:02;1.65;;;1.20;;
32138;SDS011;18644;48.700;9.210;2023-04-12T03:27:30;3.50;;;1.50;;
32138;SDS011;18644;48.700;9.210;2023-04-12T03:29:57;1.33;;;1.13;;
32138;SDS011;18644;48.700;9.210;2023-04-12T03:32:24;2.45;;;1.27;;
32138;SDS011;18644;48.700;9.210;2023-04-12T03:34:50;4.53;;;1.50;;
32138;SDS011;18644;48.700;9.210;2023-04-12T03:37:17;2.47;;;1.30;;
32138;SDS011;18644;48.700;9.210;2023-04-12T03:39:44;1.73;;;0.98;;
32138;SDS011;18644;48.700;9.210;2023-04-12T03:42:14;1.42;;;1.17;;
32138;SDS011;18644;48.700;9.210;2023-04-12T03:44:40;1.67;;;1.25;;
32138;SDS011;18644;48.700;9.210;2023-04-12T03:47:07;3.08;;;1.30;;
32138;SDS011;18644;48.700;9.210;2023-04-12T03:49:35;3.03;;;1.20;;
32138;SDS011;18644;48.700;9.210;2023-04-12T03:52:03;3.33;;;1.33;;
32138;SDS011;18644;48.700;9.210;2023-04-12T03:54:31;3.97;;;1.20;;
32138;SDS011;18644;48.700;9.210;2023-04-12T03:56:58;3.92;;;1.73;;
32138;SDS011;18644;48.700;9.210;2023-04-12T03:59:27;1.35;;;1.00;;
32138;SDS011;18644;48.700;9.210;2023-04-12T04:01:54;1.30;;;1.20;;
32138;SDS011;18644;48.700;9.210;2023-04-12T04:04:21;1.27;;;1.08;;
32138;SDS011;18644;48.700;9.210;2023-04-12T04:06:48;2.13;;;1.50;;
32138;SDS011;18644;48.700;9.210;2023-04-12T04:09:16;1.88;;;1.30;;
32138;SDS011;18644;48.700;9.210;2023-04-12T04:11:43;2.40;;;1.25;;
32138;SDS011;18644;48.700;9.210;2023-04-12T04:14:10;2.30;;;1.42;;
32138;SDS011;18644;48.700;9.210;2023-04-12T04:16:39;1.63;;;1.30;;
32138;SDS011;18644;48.700;9.210;2023-04-12T04:19:06;2.55;;;1.30;;
32138;SDS011;18644;48.700;9.210;2023-04-12T04:21:32;4.18;;;1.42;;
32138;SDS011;18644;48.700;9.210;2023-04-12T04:23:59;2.50;;;1.42;;
32138;SDS011;18644;48.700;9.210;2023-04-12T04:26:26;3.30;;;1.30;;
32138;SDS011;18644;48.700;9.210;2023-04-12T04:28:57;3.17;;;1.70;;
32138;SDS011;18644;48.700;9.210;2023-04-12T04:31:27;1.45;;;1.25;;
32138;SDS011;18644;48.700;9.210;2023-04-12T04:33:59;2.92;;;1.40;;
32138;SDS011;18644;48.700;9.210;2023-04-12T04:36:27;2.78;;;1.30;;
32138;SDS011;18644;48.700;9.210;2023-04-12T04:38:54;1.65;;;1.10;;
32138;SDS011;18644;48.700;9.210;2023-04-12T04:41:22;2.03;;;1.20;;
32138;SDS011;18644;48.700;9.210;2023-04-12T04:43:49;2.33;;;1.08;;
32138;SDS011;18644;48.700;9.210;2023-04-12T04:46:18;1.80;;;1.20;;
32138;SDS011;18644;48.700;9.210;2023-04-12T04:48:46;1.35;;;1.25;;
32138;SDS011;18644;48.700;9.210;2023-04-12T04:51:14;1.60;;;1.40;;
32138;SDS011;18644;48.700;9.210;2023-04-12T04:53:41;2.22;;;1.52;;
32138;SDS011;18644;48.700;9.210;2023-04-12T04:56:09;2.67;;;1.25;;
32138;SDS011;18644;48.700;9.210;2023-04-12T04:58:36;2.90;;;1.88;;
32138;SDS011;18644;48.700;9.210;2023-04-12T05:01:03;2.35;;;1.60;;
32138;SDS011;18644;48.700;9.210;2023-04-12T05:03:31;2.63;;;1.60;;
32138;SDS011;18644;48.700;9.210;2023-04-12T05:06:17;2.92;;;1.58;;
32138;SDS011;18644;48.700;9.210;2023-04-12T05:08:45;2.05;;;1.80;;
32138;SDS011;18644;48.700;9.210;2023-04-12T05:11:12;2.08;;;1.40;;
32138;SDS011;18644;48.700;9.210;2023-04-12T05:13:43;3.42;;;1.88;;
32138;SDS011;18644;48.700;9.210;2023-04-12T05:16:10;3.53;;;2.00;;
32138;SDS011;18644;48.700;9.210;2023-04-12T05:18:38;2.80;;;1.70;;
32138;SDS011;18644;48.700;9.210;2023-04-12T05:21:05;2.58;;;1.58;;
32138;SDS011;18644;48.700;9.210;2023-04-12T05:23:34;2.30;;;1.70;;
32138;SDS011;18644;48.700;9.210;2023-04-12T05:26:02;4.93;;;1.95;;
32138;SDS011;18644;48.700;9.210;2023-04-12T05:28:30;2.30;;;1.60;;
32138;SDS011;18644;48.700;9.210;2023-04-12T05:30:57;1.92;;;1.20;;
32138;SDS011;18644;48.700;9.210;2023-04-12T05:33:23;4.00;;;1.60;;
32138;SDS011;18644;48.700;9.210;2023-04-12T05:35:50;2.55;;;1.70;;
32138;SDS011;18644;48.700;9.210;2023-04-12T05:38:17;4.13;;;1.48;;
32138;SDS011;18644;48.700;9.210;2023-04-12T05:40:46;1.75;;;1.17;;
32138;SDS011;18644;48.700;9.210;2023-04-12T05:43:14;8.30;;;1.58;;
32138;SDS011;18644;48.700;9.210;2023-04-12T05:45:41;1.92;;;1.20;;
32138;SDS011;18644;48.700;9.210;2023-04-12T05:48:08;1.92;;;1.30;;
32138;SDS011;18644;48.700;9.210;2023-04-12T05:50:35;2.88;;;1.60;;
32138;SDS011;18644;48.700;9.210;2023-04-12T05:53:02;1.73;;;1.27;;
32138;SDS011;18644;48.700;9.210;2023-04-12T05:55:30;2.42;;;1.50;;
32138;SDS011;18644;48.700;9.210;2023-04-12T05:57:58;2.38;;;1.45;;
32138;SDS011;18644;48.700;9.210;2023-04-12T06:00:25;4.05;;;1.70;;
32138;SDS011;18644;48.700;9.210;2023-04-12T06:02:52;2.20;;;1.40;;
32138;SDS011;18644;48.700;9.210;2023-04-12T06:05:18;1.75;;;1.25;;
32138;SDS011;18644;48.700;9.210;2023-04-12T06:07:46;2.60;;;1.25;;
32138;SDS011;18644;48.700;9.210;2023-04-12T06:10:14;1.33;;;1.23;;
32138;SDS011;18644;48.700;9.210;2023-04-12T06:12:42;1.75;;;0.98;;
32138;SDS011;18644;48.700;9.210;2023-04-12T06:15:10;2.90;;;1.63;;
32138;SDS011;18644;48.700;9.210;2023-04-12T06:17:37;1.98;;;1.23;;
32138;SDS011;18644;48.700;9.210;2023-04-12T06:20:04;2.47;;;1.30;;
32138;SDS011;18644;48.700;9.210;2023-04-12T06:22:33;1.77;;;1.08;;
32138;SDS011;18644;48.700;9.210;2023-04-12T06:25:00;1.38;;;1.27;;
32138;SDS011;18644;48.700;9.210;2023-04-12T06:27:27;1.65;;;1.20;;
32138;SDS011;18644;48.700;9.210;2023-04-12T06:29:54;1.80;;;1.20;;
32138;SDS011;18644;48.700;9.210;2023-04-12T06:32:23;1.13;;;0.95;;
32138;SDS011;18644;48.700;9.210;2023-04-12T06:34:51;2.50;;;1.27;;
32138;SDS011;18644;48.700;9.210;2023-04-12T06:37:18;3.08;;;1.23;;
32138;SDS011;18644;48.700;9.210;2023-04-12T06:39:46;1.52;;;1.30;;
32138;SDS011;18644;48.700;9.210;2023-04-12T06:42:13;1.50;;;1.40;;
32138;SDS011;18644;48.700;9.210;2023-04-12T06:44:43;2.42;;;1.33;;
32138;SDS011;18644;48.700;9.210;2023-04-12T06:47:10;1.17;;;1.08;;
32138;SDS011;18644;48.700;9.210;2023-04-12T06:49:38;1.13;;;1.10;;
32138;SDS011;18644;48.700;9.210;2023-04-12T06:52:05;1.88;;;1.15;;
32138;SDS011;18644;48.700;9.210;2023-04-12T06:54:32;1.55;;;1.25;;
32138;SDS011;18644;48.700;9.210;2023-04-12T06:57:01;1.35;;;1.05;;
32138;SDS011;18644;48.700;9.210;2023-04-12T06:59:28;1.23;;;1.00;;
32138;SDS011;18644;48.700;9.210;2023-04-12T07:01:55;2.00;;;1.30;;
32138;SDS011;18644;48.700;9.210;2023-04-12T07:04:22;1.98;;;1.02;;
32138;SDS011;18644;48.700;9.210;2023-04-12T07:06:50;2.13;;;1.05;;
32138;SDS011;18644;48.700;9.210;2023-04-12T07:09:17;2.80;;;1.13;;
32138;SDS011;18644;48.700;9.210;2023-04-12T07:11:44;2.88;;;0.85;;
32138;SDS011;18644;48.700;9.210;2023-04-12T07:14:11;0.80;;;0.80;;
32138;SDS011;18644;48.700;9.210;2023-04-12T07:16:38;1.25;;;1.05;;
32138;SDS011;18644;48.700;9.210;2023-04-12T07:19:05;1.20;;;0.80;;
32138;SDS011;18644;48.700;9.210;2023-04-12T07:21:32;1.35;;;1.20;;
32138;SDS011;18644;48.700;9.210;2023-04-12T07:24:00;1.63;;;0.90;;
32138;SDS011;18644;48.700;9.210;2023-04-12T07:26:28;0.93;;;0.75;;
32138;SDS011;18644;48.700;9.210;2023-04-12T07:28:55;2.13;;;1.20;;
32138;SDS011;18644;48.700;9.210;2023-04-12T07:31:22;1.40;;;0.80;;
32138;SDS011;18644;48.700;9.210;2023-04-12T07:33:49;1.80;;;1.05;;
32138;SDS011;18644;48.700;9.210;2023-04-12T07:36:16;1.35;;;0.98;;
32138;SDS011;18644;48.700;9.210;2023-04-12T07:38:45;0.98;;;0.82;;
32138;SDS011;18644;48.700;9.210;2023-04-12T07:41:14;1.08;;;0.90;;
32138;SDS011;18644;48.700;9.210;2023-04-12T07:43:42;1.52;;;0.85;;
32138;SDS011;18644;48.700;9.210;2023-04-12T07:46:09;1.58;;;1.00;;
32138;SDS011;18644;48.700;9.210;2023-04-12T07:48:36;0.65;;;0.65;;
32138;SDS011;18644;48.700;9.210;2023-04-12T07:51:03;0.98;;;0.73;;
32138;SDS011;18644;48.700;9.210;2023-04-12T07:53:31;1.45;;;0.82;;
32138;SDS011;18644;48.700;9.210;2023-04-12T07:55:58;3.00;;;0.98;;
32138;SDS011;18644;48.700;9.210;2023-04-12T07:58:26;1.50;;;0.70;;
32138;SDS011;18644;48.700;9.210;2023-04-12T08:00:53;1.02;;;0.75;;
32138;SDS011;18644;48.700;9.210;2023-04-12T08:03:21;1.10;;;1.00;;
32138;SDS011;18644;48.700;9.210;2023-04-12T08:05:48;1.58;;;0.90;;
32138;SDS011;18644;48.700;9.210;2023-04-12T08:08:17;1.42;;;0.90;;
32138;SDS011;18644;48.700;9.210;2023-04-12T08:10:44;1.05;;;0.82;;
32138;SDS011;18644;48.700;9.210;2023-04-12T08:13:11;1.27;;;0.82;;
32138;SDS011;18644;48.700;9.210;2023-04-12T08:15:39;1.00;;;0.70;;
32138;SDS011;18644;48.700;9.210;2023-04-12T08:18:07;6.25;;;0.90;;
32138;SDS011;18644;48.700;9.210;2023-04-12T08:20:34;1.30;;;1.05;;
32138;SDS011;18644;48.700;9.210;2023-04-12T08:23:04;1.45;;;0.88;;
32138;SDS011;18644;48.700;9.210;2023-04-12T08:25:31;0.75;;;0.75;;
32138;SDS011;18644;48.700;9.210;2023-04-12T08:27:58;2.15;;;1.00;;
32138;SDS011;18644;48.700;9.210;2023-04-12T08:30:25;1.00;;;0.80;;
32138;SDS011;18644;48.700;9.210;2023-04-12T08:32:53;1.77;;;1.00;;
32138;SDS011;18644;48.700;9.210;2023-04-12T08:35:20;1.30;;;0.77;;
32138;SDS011;18644;48.700;9.210;2023-04-12T08:37:49;1.85;;;0.60;;
32138;SDS011;18644;48.700;9.210;2023-04-12T08:40:16;1.15;;;0.80;;
32138;SDS011;18644;48.700;9.210;2023-04-12T08:42:45;1.23;;;0.73;;
32138;SDS011;18644;48.700;9.210;2023-04-12T08:45:12;1.23;;;0.60;;
32138;SDS011;18644;48.700;9.210;2023-04-12T08:47:40;1.55;;;0.95;;
32138;SDS011;18644;48.700;9.210;2023-04-12T08:50:10;0.70;;;0.70;;
32138;SDS011;18644;48.700;9.210;2023-04-12T08:52:38;2.00;;;0.80;;
32138;SDS011;18644;48.700;9.210;2023-04-12T08:55:06;0.90;;;0.70;;
32138;SDS011;18644;48.700;9.210;2023-04-12T08:57:35;1.10;;;0.70;;
32138;SDS011;18644;48.700;9.210;2023-04-12T09:00:06;2.47;;;0.77;;
32138;SDS011;18644;48.700;9.210;2023-04-12T09:02:34;0.80;;;0.70;;
32138;SDS011;18644;48.700;9.210;2023-04-12T09:05:01;0.70;;;0.70;;
32138;SDS011;18644;48.700;9.210;2023-04-12T09:07:31;3.22;;;0.70;;
32138;SDS011;18644;48.700;9.210;2023-04-12T09:09:58;1.25;;;1.05;;
32138;SDS011;18644;48.700;9.210;2023-04-12T09:12:25;1.42;;;0.90;;
32138;SDS011;18644;48.700;9.210;2023-04-12T09:15:05;3.15;;;0.82;;
32138;SDS011;18644;48.700;9.210;2023-04-12T09:17:34;1.25;;;1.00;;
32138;SDS011;18644;48.700;9.210;2023-04-12T09:20:05;1.67;;;0.95;;
32138;SDS011;18644;48.700;9.210;2023-04-12T09:22:51;0.77;;;0.73;;
32138;SDS011;18644;48.700;9.210;2023-04-12T09:25:35;1.67;;;1.30;;
32138;SDS011;18644;48.700;9.210;2023-04-12T09:28:16;1.08;;;0.85;;
32138;SDS011;18644;48.700;9.210;2023-04-12T09:30:49;2.05;;;1.33;;
32138;SDS011;18644;48.700;9.210;2023-04-12T09:33:17;3.75;;;1.60;;
32138;SDS011;18644;48.700;9.210;2023-04-12T09:35:46;2.80;;;2.10;;
32138;SDS011;18644;48.700;9.210;2023-04-12T09:38:14;3.30;;;1.50;;
32138;SDS011;18644;48.700;9.210;2023-04-12T09:40:41;3.45;;;1.45;;
32138;SDS011;18644;48.700;9.210;2023-04-12T09:43:08;1.67;;;1.02;;
32138;SDS011;18644;48.700;9.210;2023-04-12T09:45:35;2.42;;;1.33;;
32138;SDS011;18644;48.700;9.210;2023-04-12T09:48:04;1.20;;;1.00;;
32138;SDS011;18644;48.700;9.210;2023-04-12T09:50:32;1.77;;;1.10;;
32138;SDS011;18644;48.700;9.210;2023-04-12T09:53:00;1.73;;;0.95;;
32138;SDS011;18644;48.700;9.210;2023-04-12T09:55:30;3.03;;;1.27;;
32138;SDS011;18644;48.700;9.210;2023-04-12T09:57:59;1.92;;;1.20;;
32138;SDS011;18644;48.700;9.210;2023-04-12T10:00:29;2.42;;;1.15;;
32138;SDS011;18644;48.700;9.210;2023-04-12T10:02:58;1.30;;;0.95;;
32138;SDS011;18644;48.700;9.210;2023-04-12T10:05:25;1.90;;;1.10;;
32138;SDS011;18644;48.700;9.210;2023-04-12T10:07:52;1.70;;;1.30;;
32138;SDS011;18644;48.700;9.210;2023-04-12T10:10:21;2.78;;;1.10;;
32138;SDS011;18644;48.700;9.210;2023-04-12T10:12:50;1.88;;;1.00;;
32138;SDS011;18644;48.700;9.210;2023-04-12T10:15:17;1.95;;;1.17;;
32138;SDS011;18644;48.700;9.210;2023-04-12T10:17:46;2.97;;;1.15;;
32138;SDS011;18644;48.700;9.210;2023-04-12T10:20:15;2.08;;;0.98;;
32138;SDS011;18644;48.700;9.210;2023-04-12T10:22:44;1.65;;;1.15;;
32138;SDS011;18644;48.700;9.210;2023-04-12T10:25:13;1.25;;;0.98;;
32138;SDS011;18644;48.700;9.210;2023-04-12T10:27:42;1.48;;;1.27;;
32138;SDS011;18644;48.700;9.210;2023-04-12T10:30:24;2.42;;;0.80;;
32138;SDS011;18644;48.700;9.210;2023-04-12T10:33:12;1.95;;;1.13;;
32138;SDS011;18644;48.700;9.210;2023-04-12T10:35:48;1.63;;;0.98;;
32138;SDS011;18644;48.700;9.210;2023-04-12T10:38:18;1.80;;;1.15;;
32138;SDS011;18644;48.700;9.210;2023-04-12T10:43:34;3.10;;;1.20;;
32138;SDS011;18644;48.700;9.210;2023-04-12T10:46:03;1.52;;;0.80;;
32138;SDS011;18644;48.700;9.210;2023-04-12T10:48:31;2.50;;;1.33;;
32138;SDS011;18644;48.700;9.210;2023-04-12T10:51:11;1.15;;;0.90;;
32138;SDS011;18644;48.700;9.210;2023-04-12T10:53:41;1.30;;;0.93;;
32138;SDS011;18644;48.700;9.210;2023-04-12T10:56:33;3.13;;;1.15;;
32138;SDS011;18644;48.700;9.210;2023-04-12T10:59:02;1.42;;;0.90;;
32138;SDS011;18644;48.700;9.210;2023-04-12T11:01:32;1.25;;;0.70;;
32138;SDS011;18644;48.700;9.210;2023-04-12T11:04:03;4.25;;;1.17;;
32138;SDS011;18644;48.700;9.210;2023-04-12T11:06:42;2.22;;;1.05;;
32138;SDS011;18644;48.700;9.210;2023-04-12T11:09:18;1.23;;;0.80;;
32138;SDS011;18644;48.700;9.210;2023-04-12T11:11:50;1.48;;;0.90;;
32138;SDS011;18644;48.700;9.210;2023-04-12T11:14:24;1.58;;;0.73;;
32138;SDS011;18644;48.700;9.210;2023-04-12T11:19:52;1.75;;;0.82;;
32138;SDS011;18644;48.700;9.210;2023-04-12T11:22:22;0.75;;;0.70;;
32138;SDS011;18644;48.700;9.210;2023-04-12T11:24:52;2.45;;;0.77;;
32138;SDS011;18644;48.700;9.210;2023-04-12T11:27:21;4.07;;;0.80;;
32138;SDS011;18644;48.700;9.210;2023-04-12T11:29:51;0.98;;;0.85;;
32138;SDS011;18644;48.700;9.210;2023-04-12T11:32:21;1.92;;;1.00;;
32138;SDS011;18644;48.700;9.210;2023-04-12T11:34:50;0.65;;;0.65;;
32138;SDS011;18644;48.700;9.210;2023-04-12T11:37:19;0.60;;;0.60;;
32138;SDS011;18644;48.700;9.210;2023-04-12T11:39:49;0.68;;;0.60;;
32138;SDS011;18644;48.700;9.210;2023-04-12T11:42:19;0.93;;;0.60;;
32138;SDS011;18644;48.700;9.210;2023-04-12T11:44:48;0.73;;;0.60;;
32138;SDS011;18644;48.700;9.210;2023-04-12T11:47:16;2.10;;;0.60;;
32138;SDS011;18644;48.700;9.210;2023-04-12T11:49:47;1.33;;;0.68;;
32138;SDS011;18644;48.700;9.210;2023-04-12T11:52:15;0.52;;;0.50;;
32138;SDS011;18644;48.700;9.210;2023-04-12T11:54:44;0.93;;;0.88;;
32138;SDS011;18644;48.700;9.210;2023-04-12T11:57:13;1.90;;;1.00;;
32138;SDS011;18644;48.700;9.210;2023-04-12T11:59:42;2.85;;;0.63;;
32138;SDS011;18644;48.700;9.210;2023-04-12T12:02:11;1.77;;;0.70;;
32138;SDS011;18644;48.700;9.210;2023-04-12T12:04:39;1.38;;;0.80;;
32138;SDS011;18644;48.700;9.210;2023-04-12T12:07:09;1.25;;;1.00;;
32138;SDS011;18644;48.700;9.210;2023-04-12T12:09:37;0.77;;;0.70;;
32138;SDS011;18644;48.700;9.210;2023-04-12T12:12:05;0.70;;;0.68;;
32138;SDS011;18644;48.700;9.210;2023-04-12T12:14:33;0.95;;;0.63;;
32138;SDS011;18644;48.700;9.210;2023-04-12T12:17:01;0.98;;;0.85;;
32138;SDS011;18644;48.700;9.210;2023-04-12T12:19:36;0.80;;;0.55;;
32138;SDS011;18644;48.700;9.210;2023-04-12T12:22:16;2.42;;;0.63;;
32138;SDS011;18644;48.700;9.210;2023-04-12T12:24:46;2.30;;;0.60;;
32138;SDS011;18644;48.700;9.210;2023-04-12T12:27:17;1.23;;;0.57;;
32138;SDS011;18644;48.700;9.210;2023-04-12T12:29:49;0.93;;;0.65;;
32138;SDS011;18644;48.700;9.210;2023-04-12T12:32:18;1.13;;;0.70;;
32138;SDS011;18644;48.700;9.210;2023-04-12T12:34:50;0.60;;;0.52;;
32138;SDS011;18644;48.700;9.210;2023-04-12T12:39:58;0.70;;;0.55;;
32138;SDS011;18644;48.700;9.210;2023-04-12T12:42:31;1.35;;;0.60;;
32138;SDS011;18644;48.700;9.210;2023-04-12T12:44:59;0.98;;;0.50;;
32138;SDS011;18644;48.700;9.210;2023-04-12T12:47:28;2.53;;;0.80;;
32138;SDS011;18644;48.700;9.210;2023-04-12T12:49:55;0.85;;;0.60;;
32138;SDS011;18644;48.700;9.210;2023-04-12T12:52:23;0.57;;;0.55;;
32138;SDS011;18644;48.700;9.210;2023-04-12T12:54:50;0.75;;;0.63;;
32138;SDS011;18644;48.700;9.210;2023-04-12T12:57:17;1.33;;;0.85;;
32138;SDS011;18644;48.700;9.210;2023-04-12T12:59:44;0.95;;;0.60;;
32138;SDS011;18644;48.700;9.210;2023-04-12T13:02:11;0.98;;;0.60;;
32138;SDS011;18644;48.700;9.210;2023-04-12T13:04:39;1.45;;;0.60;;
32138;SDS011;18644;48.700;9.210;2023-04-12T13:07:06;0.73;;;0.73;;
32138;SDS011;18644;48.700;9.210;2023-04-12T13:09:34;0.95;;;0.80;;
32138;SDS011;18644;48.700;9.210;2023-04-12T13:12:01;0.82;;;0.68;;
32138;SDS011;18644;48.700;9.210;2023-04-12T13:14:28;0.80;;;0.60;;
32138;SDS011;18644;48.700;9.210;2023-04-12T13:16:55;0.55;;;0.55;;
32138;SDS011;18644;48.700;9.210;2023-04-12T13:19:22;0.73;;;0.70;;
32138;SDS011;18644;48.700;9.210;2023-04-12T13:21:49;1.45;;;0.82;;
32138;SDS011;18644;48.700;9.210;2023-04-12T13:24:16;1.02;;;0.60;;
32138;SDS011;18644;48.700;9.210;2023-04-12T13:26:44;3.58;;;0.70;;
32138;SDS011;18644;48.700;9.210;2023-04-12T13:29:11;0.50;;;0.50;;
32138;SDS011;18644;48.700;9.210;2023-04-12T13:31:38;1.00;;;0.70;;
32138;SDS011;18644;48.700;9.210;2023-04-12T13:34:05;0.60;;;0.45;;
32138;SDS011;18644;48.700;9.210;2023-04-12T13:36:32;2.25;;;0.77;;
32138;SDS011;18644;48.700;9.210;2023-04-12T13:38:59;0.70;;;0.55;;
32138;SDS011;18644;48.700;9.210;2023-04-12T13:41:25;1.23;;;0.50;;
32138;SDS011;18644;48.700;9.210;2023-04-12T13:43:56;1.48;;;0.60;;
32138;SDS011;18644;48.700;9.210;2023-04-12T13:46:23;1.20;;;0.75;;
32138;SDS011;18644;48.700;9.210;2023-04-12T13:48:50;0.57;;;0.50;;
32138;SDS011;18644;48.700;9.210;2023-04-12T13:51:17;5.25;;;0.57;;
32138;SDS011;18644;48.700;9.210;2023-04-12T13:53:44;0.82;;;0.80;;
32138;SDS011;18644;48.700;9.210;2023-04-12T13:56:11;2.20;;;0.70;;
32138;SDS011;18644;48.700;9.210;2023-04-12T13:58:37;0.88;;;0.70;;
32138;SDS011;18644;48.700;9.210;2023-04-12T14:01:06;0.73;;;0.50;;
32138;SDS011;18644;48.700;9.210;2023-04-12T14:03:33;0.40;;;0.40;;
32138;SDS011;18644;48.700;9.210;2023-04-12T14:06:00;2.05;;;0.70;;
32138;SDS011;18644;48.700;9.210;2023-04-12T14:08:27;2.05;;;0.70;;
32138;SDS011;18644;48.700;9.210;2023-04-12T14:10:54;0.50;;;0.50;;
32138;SDS011;18644;48.700;9.210;2023-04-12T14:13:21;0.50;;;0.50;;
32138;SDS011;18644;48.700;9.210;2023-04-12T14:15:49;0.57;;;0.57;;
32138;SDS011;18644;48.700;9.210;2023-04-12T14:18:17;0.50;;;0.50;;
32138;SDS011;18644;48.700;9.210;2023-04-12T14:20:46;1.17;;;0.60;;
32138;SDS011;18644;48.700;9.210;2023-04-12T14:23:16;0.90;;;0.87;;
32138;SDS011;18644;48.700;9.210;2023-04-12T14:25:43;0.50;;;0.50;;
32138;SDS011;18644;48.700;9.210;2023-04-12T14:28:10;0.73;;;0.60;;
32138;SDS011;18644;48.700;9.210;2023-04-12T14:30:40;0.90;;;0.75;;
32138;SDS011;18644;48.700;9.210;2023-04-12T14:33:07;1.05;;;0.73;;
32138;SDS011;18644;48.700;9.210;2023-04-12T14:35:36;0.85;;;0.60;;
32138;SDS011;18644;48.700;9.210;2023-04-12T14:38:03;0.95;;;0.47;;
32138;SDS011;18644;48.700;9.210;2023-04-12T14:40:30;0.50;;;0.50;;
32138;SDS011;18644;48.700;9.210;2023-04-12T14:42:57;0.93;;;0.57;;
32138;SDS011;18644;48.700;9.210;2023-04-12T14:45:24;0.40;;;0.40;;
32138;SDS011;18644;48.700;9.210;2023-04-12T14:47:51;0.95;;;0.50;;
32138;SDS011;18644;48.700;9.210;2023-04-12T14:50:17;2.60;;;0.77;;
32138;SDS011;18644;48.700;9.210;2023-04-12T14:52:46;2.25;;;0.80;;
32138;SDS011;18644;48.700;9.210;2023-04-12T14:55:13;0.57;;;0.55;;
32138;SDS011;18644;48.700;9.210;2023-04-12T14:57:41;0.77;;;0.68;;
32138;SDS011;18644;48.700;9.210;2023-04-12T15:00:08;2.13;;;0.77;;
32138;SDS011;18644;48.700;9.210;2023-04-12T15:02:39;1.90;;;0.73;;
32138;SDS011;18644;48.700;9.210;2023-04-12T15:05:08;0.68;;;0.60;;
32138;SDS011;18644;48.700;9.210;2023-04-12T15:07:35;0.93;;;0.80;;
32138;SDS011;18644;48.700;9.210;2023-04-12T15:10:04;0.50;;;0.50;;